createdAt,value
2022-10-08T00:00:01.812Z,79.74
2022-10-08T00:02:43.125Z,79.93
2022-10-08T00:05:14.930Z,79.89
2022-10-08T00:07:47.999Z,80.28
2022-10-08T00:10:19.603Z,79.98
2022-10-08T00:12:51.456Z,80.34
2022-10-08T00:15:26.161Z,80.02
2022-10-08T00:17:57.893Z,80.25
2022-10-08T00:20:29.533Z,80.53
2022-10-08T00:23:02.079Z,79.99
2022-10-08T00:25:42.465Z,79.67
2022-10-08T00:28:19.269Z,79.58
2022-10-08T00:30:50.943Z,79.48
2022-10-08T00:33:22.760Z,79.70
2022-10-08T00:35:54.549Z,80.24
2022-10-08T00:38:27.689Z,80.16
2022-10-08T00:41:02.407Z,79.86
2022-10-08T00:43:40.632Z,80.03
2022-10-08T00:46:47.095Z,79.90
2022-10-08T00:49:27.612Z,79.98
2022-10-08T00:52:04.595Z,80.01
2022-10-08T00:54:39.113Z,79.95
2022-10-08T00:57:12.681Z,80.06
2022-10-08T00:59:44.529Z,79.82
2022-10-08T01:02:22.244Z,79.95
2022-10-08T01:04:54.058Z,80.14
2022-10-08T01:07:44.948Z,80.66
2022-10-08T01:10:25.406Z,80.60
2022-10-08T01:13:25.260Z,80.54
2022-10-08T01:16:01.011Z,80.94
2022-10-08T01:18:50.741Z,80.98
2022-10-08T01:21:47.572Z,81.15
2022-10-08T01:25:13.186Z,80.98
2022-10-08T01:27:55.743Z,81.05
2022-10-08T01:30:30.357Z,81.09
2022-10-08T01:33:15.040Z,81.61
2022-10-08T01:35:53.836Z,81.50
2022-10-08T01:38:29.746Z,82.00
2022-10-08T01:41:07.748Z,82.03
2022-10-08T01:43:50.769Z,82.30
2022-10-08T01:46:27.093Z,81.87
2022-10-08T01:49:13.696Z,81.87
2022-10-08T01:51:53.997Z,81.70
2022-10-08T01:54:30.443Z,81.50
2022-10-08T01:57:05.810Z,81.58
2022-10-08T01:59:42.941Z,81.58
2022-10-08T02:02:20.529Z,81.94
2022-10-08T02:04:57.908Z,81.49
2022-10-08T02:07:40.058Z,81.43
2022-10-08T02:10:15.283Z,81.27
2022-10-08T02:12:47.126Z,81.22
2022-10-08T02:15:23.504Z,81.58
2022-10-08T02:17:58.593Z,81.98
2022-10-08T02:20:45.374Z,82.21
2022-10-08T02:23:29.802Z,81.92
2022-10-08T02:26:04.433Z,82.12
2022-10-08T02:29:13.460Z,82.52
2022-10-08T02:31:50.626Z,82.87
2022-10-08T02:34:28.976Z,83.92
2022-10-08T02:37:10.700Z,83.90
2022-10-08T02:39:48.206Z,84.26
2022-10-08T02:42:24.885Z,84.70
2022-10-08T02:45:07.587Z,84.49
2022-10-08T02:47:43.600Z,84.31
2022-10-08T02:50:20.638Z,84.25
2022-10-08T02:52:56.225Z,84.37
2022-10-08T02:55:57.082Z,84.21
2022-10-08T02:58:32.086Z,84.13
2022-10-08T03:01:10.439Z,84.07
2022-10-08T03:03:55.271Z,84.44
2022-10-08T03:06:30.102Z,83.99
2022-10-08T03:09:08.932Z,84.00
2022-10-08T03:11:41.397Z,83.99
2022-10-08T03:14:18.342Z,83.78
2022-10-08T03:16:54.209Z,83.36
2022-10-08T03:19:28.685Z,83.14
2022-10-08T03:22:02.131Z,83.23
2022-10-08T03:24:35.203Z,83.33
2022-10-08T03:27:06.926Z,83.12
2022-10-08T03:29:38.631Z,83.56
2022-10-08T03:32:10.574Z,83.18
2022-10-08T03:34:42.887Z,83.21
2022-10-08T03:37:14.549Z,83.20
2022-10-08T03:39:46.540Z,82.88
2022-10-08T03:42:18.263Z,83.03
2022-10-08T03:44:49.953Z,82.77
2022-10-08T03:47:21.711Z,82.52
2022-10-08T03:49:55.574Z,82.83
2022-10-08T03:52:27.539Z,82.51
2022-10-08T03:55:01.220Z,82.26
2022-10-08T03:57:33.502Z,82.60
2022-10-08T04:00:05.766Z,82.58
2022-10-08T04:02:37.901Z,82.34
2022-10-08T04:05:12.868Z,82.84
2022-10-08T04:07:44.575Z,83.04
2022-10-08T04:10:19.490Z,83.13
2022-10-08T04:12:51.180Z,83.42
2022-10-08T04:15:22.830Z,83.42
2022-10-08T04:17:54.582Z,82.97
2022-10-08T04:20:26.506Z,82.47
2022-10-08T04:23:00.954Z,82.37
2022-10-08T04:25:32.863Z,82.43
2022-10-08T04:28:06.063Z,82.23
2022-10-08T04:30:41.917Z,81.98
2022-10-08T04:33:13.648Z,81.45
2022-10-08T04:35:45.438Z,81.32
2022-10-08T04:38:17.329Z,81.08
2022-10-08T04:40:52.213Z,80.98
2022-10-08T04:43:24.133Z,81.34
2022-10-08T04:45:55.971Z,81.56
2022-10-08T04:48:28.748Z,80.67
2022-10-08T04:51:08.033Z,80.81
2022-10-08T04:53:42.494Z,80.94
2022-10-08T04:56:20.495Z,81.32
2022-10-08T04:58:55.094Z,80.89
2022-10-08T05:01:27.955Z,80.82
2022-10-08T05:03:59.970Z,81.10
2022-10-08T05:06:32.102Z,81.59
2022-10-08T05:09:04.678Z,81.06
2022-10-08T05:11:36.324Z,81.28
2022-10-08T05:14:08.342Z,81.27
2022-10-08T05:16:40.001Z,81.54
2022-10-08T05:19:11.649Z,81.14
2022-10-08T05:21:44.335Z,80.87
2022-10-08T05:24:16.048Z,80.72
2022-10-08T05:26:58.617Z,80.71
2022-10-08T05:29:32.975Z,80.64
2022-10-08T05:32:04.955Z,80.25
2022-10-08T05:34:36.824Z,79.82
2022-10-08T05:37:08.567Z,79.78
2022-10-08T05:39:40.248Z,79.54
2022-10-08T05:42:14.776Z,79.28
2022-10-08T05:44:46.429Z,79.24
2022-10-08T05:47:18.183Z,78.87
2022-10-08T05:49:49.831Z,78.62
2022-10-08T05:52:21.586Z,78.54
2022-10-08T05:54:53.284Z,78.17
2022-10-08T05:57:24.976Z,78.15
2022-10-08T05:59:56.909Z,78.05
2022-10-08T06:02:28.752Z,77.50
2022-10-08T06:05:00.457Z,77.27
2022-10-08T06:07:32.158Z,77.05
2022-10-08T06:10:04.237Z,77.09
2022-10-08T06:12:38.006Z,77.61
2022-10-08T06:15:10.210Z,77.19
2022-10-08T06:17:43.925Z,77.63
2022-10-08T06:20:15.696Z,77.87
2022-10-08T06:22:47.848Z,78.05
2022-10-08T06:25:22.479Z,78.11
2022-10-08T06:27:54.254Z,78.43
2022-10-08T06:30:26.155Z,77.98
2022-10-08T06:32:57.975Z,78.21
2022-10-08T06:35:30.252Z,77.50
2022-10-08T06:38:02.836Z,77.78
2022-10-08T06:40:39.020Z,77.97
2022-10-08T06:43:16.633Z,77.86
2022-10-08T06:45:48.328Z,77.63
2022-10-08T06:48:20.054Z,77.37
2022-10-08T06:51:01.666Z,77.04
2022-10-08T06:53:34.802Z,76.76
2022-10-08T06:56:10.795Z,76.87
2022-10-08T06:58:44.923Z,76.43
2022-10-08T07:01:23.375Z,76.05
2022-10-08T07:04:00.556Z,76.15
2022-10-08T07:06:32.422Z,75.52
2022-10-08T07:09:05.390Z,75.43
2022-10-08T07:11:38.373Z,75.45
2022-10-08T07:14:11.102Z,74.83
2022-10-08T07:16:42.828Z,74.98
2022-10-08T07:19:15.311Z,74.96
2022-10-08T07:21:47.052Z,74.70
2022-10-08T07:24:18.799Z,74.22
2022-10-08T07:26:50.532Z,73.95
2022-10-08T07:29:24.702Z,73.65
2022-10-08T07:31:56.449Z,73.76
2022-10-08T07:34:32.950Z,73.56
2022-10-08T07:37:04.631Z,73.09
2022-10-08T07:39:36.780Z,73.57
2022-10-08T07:42:08.406Z,72.97
2022-10-08T07:44:40.212Z,72.37
2022-10-08T07:47:11.832Z,72.45
2022-10-08T07:49:45.572Z,72.39
2022-10-08T07:52:18.497Z,72.37
2022-10-08T07:54:50.195Z,72.41
2022-10-08T07:57:21.915Z,72.08
2022-10-08T07:59:56.376Z,72.16
2022-10-08T08:02:28.477Z,71.85
2022-10-08T08:05:00.371Z,71.95
2022-10-08T08:07:31.963Z,72.07
2022-10-08T08:10:04.110Z,71.89
2022-10-08T08:12:35.773Z,71.59
2022-10-08T08:15:09.080Z,71.61
2022-10-08T08:17:40.934Z,71.40
2022-10-08T08:20:12.780Z,71.02
2022-10-08T08:22:44.697Z,70.95
2022-10-08T08:25:17.027Z,70.51
2022-10-08T08:27:48.999Z,69.83
2022-10-08T08:30:20.811Z,69.98
2022-10-08T08:32:52.922Z,69.39
2022-10-08T08:35:27.671Z,69.24
2022-10-08T08:37:59.415Z,68.91
2022-10-08T08:40:31.087Z,68.79
2022-10-08T08:43:02.760Z,68.78
2022-10-08T08:45:51.874Z,68.40
2022-10-08T08:48:33.208Z,67.98
2022-10-08T08:51:05.135Z,67.71
2022-10-08T08:53:36.804Z,67.21
2022-10-08T08:56:13.109Z,66.90
2022-10-08T08:59:18.246Z,66.68
2022-10-08T09:01:51.233Z,65.94
2022-10-08T09:04:48.909Z,64.85
2022-10-08T09:07:26.263Z,65.00
2022-10-08T09:09:59.515Z,64.74
2022-10-08T09:12:37.890Z,64.50
2022-10-08T09:15:23.890Z,64.07
2022-10-08T09:17:55.630Z,64.60
2022-10-08T09:20:28.711Z,64.88
2022-10-08T09:23:00.594Z,65.00
2022-10-08T09:25:34.376Z,64.87
2022-10-08T09:28:07.304Z,64.71
2022-10-08T09:30:42.849Z,65.32
2022-10-08T09:33:18.608Z,65.28
2022-10-08T09:35:52.591Z,65.45
2022-10-08T09:38:32.724Z,65.42
2022-10-08T09:41:17.820Z,65.41
2022-10-08T09:44:11.434Z,65.56
2022-10-08T09:46:46.889Z,65.83
2022-10-08T09:49:35.273Z,66.00
2022-10-08T09:52:22.298Z,65.79
2022-10-08T09:55:02.188Z,65.59
2022-10-08T09:57:44.027Z,65.88
2022-10-08T10:00:37.174Z,65.94
2022-10-08T10:03:17.944Z,66.17
2022-10-08T10:05:55.285Z,66.18
2022-10-08T10:08:53.105Z,66.07
2022-10-08T10:11:31.419Z,66.12
2022-10-08T10:14:26.130Z,65.98
2022-10-08T10:17:05.811Z,66.26
2022-10-08T10:20:05.219Z,65.80
2022-10-08T10:22:54.260Z,65.69
2022-10-08T10:25:33.066Z,65.14
2022-10-08T10:28:13.569Z,65.47
2022-10-08T10:30:53.102Z,65.37
2022-10-08T10:33:32.554Z,65.59
2022-10-08T10:36:09.595Z,65.34
2022-10-08T10:38:52.234Z,64.93
2022-10-08T10:42:02.085Z,64.63
2022-10-08T10:44:52.565Z,63.80
2022-10-08T10:47:32.065Z,63.28
2022-10-08T10:50:06.004Z,63.18
2022-10-08T10:53:05.744Z,62.77
2022-10-08T10:55:44.745Z,61.98
2022-10-08T10:58:37.798Z,61.85
2022-10-08T11:01:12.578Z,61.90
2022-10-08T11:04:01.481Z,61.58
2022-10-08T11:06:56.429Z,61.68
2022-10-08T11:09:34.400Z,61.57
2022-10-08T11:12:46.272Z,62.10
2022-10-08T11:15:26.659Z,61.88
2022-10-08T11:18:14.510Z,61.57
2022-10-08T11:21:07.236Z,61.45
2022-10-08T11:23:45.219Z,60.64
2022-10-08T11:26:22.835Z,60.77
2022-10-08T11:29:04.705Z,60.50
2022-10-08T11:31:49.230Z,60.24
2022-10-08T11:34:29.828Z,60.03
2022-10-08T11:37:20.986Z,60.37
2022-10-08T11:40:15.707Z,60.57
2022-10-08T11:43:08.643Z,60.78
2022-10-08T11:45:43.144Z,60.93
2022-10-08T11:48:29.001Z,60.95
2022-10-08T11:51:20.160Z,60.76
2022-10-08T11:54:03.712Z,61.04
2022-10-08T11:56:39.155Z,60.86
2022-10-08T11:59:28.193Z,60.87
2022-10-08T12:02:18.795Z,60.96
2022-10-08T12:04:55.797Z,60.95
2022-10-08T12:07:33.219Z,60.96
2022-10-08T12:10:20.030Z,60.89
2022-10-08T12:12:51.859Z,61.35
2022-10-08T12:15:23.648Z,61.61
2022-10-08T12:17:58.020Z,61.02
2022-10-08T12:20:37.709Z,61.22
2022-10-08T12:23:34.462Z,61.51
2022-10-08T12:26:10.272Z,61.12
2022-10-08T12:28:50.991Z,60.74
2022-10-08T12:31:40.208Z,60.34
2022-10-08T12:34:17.969Z,60.37
2022-10-08T12:37:13.513Z,60.69
2022-10-08T12:39:53.573Z,60.95
2022-10-08T12:42:34.337Z,60.79
2022-10-08T12:45:25.989Z,60.74
2022-10-08T12:48:19.458Z,60.62
2022-10-08T12:51:13.145Z,60.28
2022-10-08T12:53:48.686Z,60.17
2022-10-08T12:56:28.171Z,60.27
2022-10-08T12:59:03.670Z,60.25
2022-10-08T13:01:42.969Z,60.07
2022-10-08T13:04:18.570Z,60.03
2022-10-08T13:06:52.761Z,59.90
2022-10-08T13:09:27.746Z,60.12
2022-10-08T13:12:05.938Z,59.95
2022-10-08T13:14:39.528Z,59.95
2022-10-08T13:17:43.618Z,59.79
2022-10-08T13:20:21.902Z,59.79
2022-10-08T13:22:53.694Z,58.96
2022-10-08T13:25:31.480Z,58.92
2022-10-08T13:28:41.827Z,58.43
2022-10-08T13:31:23.273Z,59.09
2022-10-08T13:33:55.117Z,59.25
2022-10-08T13:36:26.754Z,59.13
2022-10-08T13:38:58.649Z,59.17
2022-10-08T13:41:30.327Z,59.05
2022-10-08T13:44:06.762Z,58.72
2022-10-08T13:46:42.455Z,58.85
2022-10-08T13:49:23.094Z,58.75
2022-10-08T13:51:58.731Z,58.76
2022-10-08T13:54:34.127Z,58.67
2022-10-08T13:57:08.598Z,58.80
2022-10-08T13:59:40.439Z,58.93
2022-10-08T14:02:14.312Z,58.84
2022-10-08T14:04:47.106Z,58.89
2022-10-08T14:07:31.123Z,58.45
2022-10-08T14:10:04.047Z,58.64
2022-10-08T14:12:35.761Z,58.92
2022-10-08T14:15:10.253Z,59.01
2022-10-08T14:17:42.035Z,58.41
2022-10-08T14:20:16.690Z,58.52
2022-10-08T14:22:48.355Z,58.40
2022-10-08T14:25:23.520Z,58.07
2022-10-08T14:27:55.209Z,57.92
2022-10-08T14:30:28.124Z,58.11
2022-10-08T14:32:59.888Z,58.08
2022-10-08T14:35:31.789Z,57.80
2022-10-08T14:38:03.850Z,57.85
2022-10-08T14:40:35.888Z,57.58
2022-10-08T14:43:07.899Z,57.35
2022-10-08T14:45:39.819Z,57.00
2022-10-08T14:48:11.644Z,57.26
2022-10-08T14:50:43.350Z,57.42
2022-10-08T14:53:15.051Z,57.33
2022-10-08T14:56:10.490Z,57.34
2022-10-08T14:58:40.595Z,57.36
2022-10-08T15:01:12.506Z,56.89
2022-10-08T15:03:45.758Z,56.66
2022-10-08T15:06:17.580Z,56.77
2022-10-08T15:08:49.409Z,56.51
2022-10-08T15:11:21.131Z,56.49
2022-10-08T15:13:53.773Z,55.86
2022-10-08T15:16:25.872Z,55.49
2022-10-08T15:18:57.581Z,54.75
2022-10-08T15:21:29.355Z,54.50
2022-10-08T15:24:01.072Z,53.92
2022-10-08T15:26:33.849Z,53.71
2022-10-08T15:29:05.510Z,53.30
2022-10-08T15:31:37.318Z,53.45
2022-10-08T15:34:16.388Z,53.05
2022-10-08T15:36:48.398Z,53.82
2022-10-08T15:39:20.701Z,53.46
2022-10-08T15:41:54.474Z,52.85
2022-10-08T15:44:31.545Z,52.35
2022-10-08T15:47:07.300Z,52.60
2022-10-08T15:49:41.832Z,52.80
2022-10-08T15:52:15.058Z,53.61
2022-10-08T15:54:47.522Z,54.07
2022-10-08T15:57:19.418Z,54.57
2022-10-08T15:59:51.079Z,53.62
2022-10-08T16:02:25.054Z,53.86
2022-10-08T16:04:57.123Z,54.28
2022-10-08T16:07:32.088Z,54.26
2022-10-08T16:10:04.191Z,54.28
2022-10-08T16:12:35.837Z,54.68
2022-10-08T16:15:09.347Z,55.11
2022-10-08T16:17:41.063Z,55.39
2022-10-08T16:20:12.782Z,55.75
2022-10-08T16:22:47.007Z,55.92
2022-10-08T16:25:18.918Z,56.14
2022-10-08T16:27:50.970Z,55.95
2022-10-08T16:30:22.962Z,56.19
2022-10-08T16:32:56.682Z,56.73
2022-10-08T16:35:28.368Z,56.94
2022-10-08T16:38:00.057Z,57.30
2022-10-08T16:40:31.755Z,57.48
2022-10-08T16:43:03.615Z,57.42
2022-10-08T16:45:39.581Z,57.35
2022-10-08T16:48:11.394Z,57.42
2022-10-08T16:50:43.067Z,57.51
2022-10-08T16:53:19.088Z,57.90
2022-10-08T16:55:50.578Z,58.15
2022-10-08T16:58:22.294Z,58.57
2022-10-08T17:00:53.999Z,58.83
2022-10-08T17:03:25.995Z,59.00
2022-10-08T17:05:57.935Z,59.37
2022-10-08T17:08:32.832Z,59.74
2022-10-08T17:11:09.859Z,59.87
2022-10-08T17:13:47.310Z,60.03
2022-10-08T17:16:20.796Z,60.29
2022-10-08T17:18:54.318Z,60.46
2022-10-08T17:21:30.525Z,60.63
2022-10-08T17:24:03.042Z,60.91
2022-10-08T17:26:35.075Z,61.29
2022-10-08T17:29:09.578Z,61.59
2022-10-08T17:31:41.738Z,61.94
2022-10-08T17:34:13.456Z,62.15
2022-10-08T17:36:45.177Z,62.22
2022-10-08T17:39:16.859Z,62.60
2022-10-08T17:41:48.659Z,62.83
2022-10-08T17:44:20.425Z,62.80
2022-10-08T17:46:52.172Z,63.17
2022-10-08T17:49:24.109Z,63.25
2022-10-08T17:51:55.764Z,63.72
2022-10-08T17:54:27.543Z,63.96
2022-10-08T17:56:59.999Z,64.12
2022-10-08T17:59:31.900Z,64.34
2022-10-08T18:02:03.762Z,64.45
2022-10-08T18:04:35.562Z,64.32
2022-10-08T18:07:07.316Z,63.47
2022-10-08T18:09:39.028Z,63.02
2022-10-08T18:12:10.982Z,62.15
2022-10-08T18:14:45.610Z,62.08
2022-10-08T18:17:17.074Z,61.48
2022-10-08T18:19:49.094Z,61.32
2022-10-08T18:22:22.918Z,61.03
2022-10-08T18:24:54.687Z,60.51
2022-10-08T18:27:26.328Z,60.46
2022-10-08T18:29:58.040Z,60.57
2022-10-08T18:32:29.746Z,60.89
2022-10-08T18:35:01.498Z,59.94
2022-10-08T18:37:33.181Z,59.89
2022-10-08T18:40:06.494Z,60.01
2022-10-08T18:42:38.291Z,59.86
2022-10-08T18:45:12.429Z,60.07
2022-10-08T18:47:44.308Z,60.61
2022-10-08T18:50:16.063Z,59.85
2022-10-08T18:52:47.995Z,60.16
2022-10-08T18:55:19.817Z,60.63
2022-10-08T18:57:53.268Z,60.47
2022-10-08T19:00:24.962Z,59.66
2022-10-08T19:02:59.708Z,59.69
2022-10-08T19:05:31.517Z,59.57
2022-10-08T19:08:04.220Z,59.76
2022-10-08T19:10:36.052Z,60.42
2022-10-08T19:13:07.804Z,60.80
2022-10-08T19:15:39.764Z,61.53
2022-10-08T19:18:11.450Z,61.82
2022-10-08T19:20:43.096Z,62.08
2022-10-08T19:23:15.091Z,62.47
2022-10-08T19:25:47.081Z,62.54
2022-10-08T19:28:18.964Z,63.28
2022-10-08T19:30:50.769Z,62.92
2022-10-08T19:33:22.834Z,63.42
2022-10-08T19:36:00.975Z,63.41
2022-10-08T19:38:32.615Z,63.79
2022-10-08T19:41:08.890Z,63.72
2022-10-08T19:43:43.413Z,64.32
2022-10-08T19:46:15.062Z,64.36
2022-10-08T19:48:51.375Z,65.25
2022-10-08T19:51:24.730Z,64.81
2022-10-08T19:53:57.658Z,65.43
2022-10-08T19:56:31.026Z,64.92
2022-10-08T19:59:03.191Z,64.73
2022-10-08T20:01:37.250Z,64.82
2022-10-08T20:04:11.061Z,64.91
2022-10-08T20:06:44.721Z,65.01
2022-10-08T20:09:16.806Z,64.94
2022-10-08T20:11:48.520Z,65.11
2022-10-08T20:14:20.907Z,65.85
2022-10-08T20:16:52.672Z,65.39
2022-10-08T20:19:27.067Z,65.93
2022-10-08T20:21:58.827Z,65.65
2022-10-08T20:24:36.531Z,64.86
2022-10-08T20:27:08.271Z,65.07
2022-10-08T20:29:39.950Z,64.59
2022-10-08T20:32:12.228Z,64.67
2022-10-08T20:34:46.820Z,64.06
2022-10-08T20:37:18.577Z,64.40
2022-10-08T20:39:50.236Z,64.37
2022-10-08T20:42:23.488Z,64.66
2022-10-08T20:44:55.562Z,64.30
2022-10-08T20:47:27.311Z,64.20
2022-10-08T20:49:59.004Z,64.62
2022-10-08T20:52:30.800Z,64.82
2022-10-08T20:55:06.363Z,64.57
2022-10-08T20:57:38.130Z,64.44
2022-10-08T21:00:10.363Z,64.13
2022-10-08T21:02:42.047Z,64.45
2022-10-08T21:05:14.458Z,63.97
2022-10-08T21:07:46.284Z,64.33
2022-10-08T21:10:21.954Z,64.72
2022-10-08T21:12:56.257Z,64.54
2022-10-08T21:15:27.982Z,64.63
2022-10-08T21:17:59.725Z,64.89
2022-10-08T21:20:35.315Z,64.74
2022-10-08T21:23:09.985Z,64.60
2022-10-08T21:25:41.819Z,64.40
2022-10-08T21:28:13.702Z,63.88
2022-10-08T21:30:55.716Z,64.42
2022-10-08T21:33:27.514Z,64.70
2022-10-08T21:35:59.235Z,64.53
2022-10-08T21:38:31.156Z,64.59
2022-10-08T21:41:11.690Z,64.55
2022-10-08T21:43:51.919Z,64.23
2022-10-08T21:46:26.469Z,63.88
2022-10-08T21:49:00.729Z,63.54
2022-10-08T21:51:33.725Z,63.57
2022-10-08T21:54:06.779Z,63.50
2022-10-08T21:56:40.019Z,63.45
2022-10-08T21:59:14.608Z,63.87
2022-10-08T22:01:50.637Z,64.04
2022-10-08T22:04:24.601Z,63.78
2022-10-08T22:07:01.872Z,64.15
2022-10-08T22:09:34.870Z,64.45
2022-10-08T22:12:06.646Z,63.99
2022-10-08T22:14:38.435Z,64.68
2022-10-08T22:17:10.135Z,64.86
2022-10-08T22:19:41.839Z,65.22
2022-10-08T22:22:13.473Z,65.07
2022-10-08T22:24:45.145Z,65.06
2022-10-08T22:27:16.795Z,65.70
2022-10-08T22:29:48.499Z,65.92
2022-10-08T22:32:23.139Z,66.06
2022-10-08T22:34:54.693Z,65.93
2022-10-08T22:37:26.380Z,66.40
2022-10-08T22:39:58.252Z,66.46
2022-10-08T22:42:31.037Z,66.47
2022-10-08T22:45:03.029Z,66.77
2022-10-08T22:47:37.701Z,66.61
2022-10-08T22:50:09.641Z,66.74
2022-10-08T22:52:41.291Z,67.23
2022-10-08T22:55:14.908Z,67.15
2022-10-08T22:57:49.988Z,67.17
2022-10-08T23:00:21.665Z,67.34
2022-10-08T23:02:53.352Z,67.58
2022-10-08T23:05:25.030Z,67.27
2022-10-08T23:07:57.257Z,67.80
2022-10-08T23:10:28.948Z,67.79
2022-10-08T23:13:01.812Z,67.76
2022-10-08T23:15:33.510Z,68.03
2022-10-08T23:18:08.152Z,67.96
2022-10-08T23:20:39.712Z,68.16
2022-10-08T23:23:11.375Z,68.25
2022-10-08T23:25:59.125Z,68.17
2022-10-08T23:28:33.070Z,68.36
2022-10-08T23:31:08.216Z,68.16
2022-10-08T23:33:43.812Z,67.79
2022-10-08T23:36:24.445Z,67.92
2022-10-08T23:38:58.911Z,68.30
2022-10-08T23:41:30.804Z,68.39
2022-10-08T23:44:05.538Z,68.32
2022-10-08T23:46:37.055Z,68.58
2022-10-08T23:49:08.842Z,68.58
2022-10-08T23:51:40.660Z,68.69
2022-10-08T23:54:12.394Z,68.83
2022-10-08T23:56:44.144Z,69.12
2022-10-08T23:59:15.861Z,69.33
